sensor_id;sensor_type;location;lat;lon;timestamp;temperature;humidity
31677;DHT22;18385;51.572;6.578;2023-04-01T00:01:57;13.60;67.70
31677;DHT22;18385;51.572;6.578;2023-04-01T00:04:23;13.60;67.70
31677;DHT22;18385;51.572;6.578;2023-04-01T00:06:48;13.50;67.70
31677;DHT22;18385;51.572;6.578;2023-04-01T00:09:14;13.50;67.90
31677;DHT22;18385;51.572;6.578;2023-04-01T00:11:40;13.50;68.00
31677;DHT22;18385;51.572;6.578;2023-04-01T00:14:06;13.40;68.10
31677;DHT22;18385;51.572;6.578;2023-04-01T00:16:32;13.40;68.20
31677;DHT22;18385;51.572;6.578;2023-04-01T00:18:58;13.50;68.30
31677;DHT22;18385;51.572;6.578;2023-04-01T00:21:25;13.50;68.30
31677;DHT22;18385;51.572;6.578;2023-04-01T00:23:51;13.50;68.30
31677;DHT22;18385;51.572;6.578;2023-04-01T00:26:17;13.40;68.30
31677;DHT22;18385;51.572;6.578;2023-04-01T00:28:44;13.30;68.50
31677;DHT22;18385;51.572;6.578;2023-04-01T00:31:10;13.30;68.70
31677;DHT22;18385;51.572;6.578;2023-04-01T00:33:37;13.30;68.70
31677;DHT22;18385;51.572;6.578;2023-04-01T00:36:13;13.30;68.80
31677;DHT22;18385;51.572;6.578;2023-04-01T00:38:39;13.30;69.00
31677;DHT22;18385;51.572;6.578;2023-04-01T00:41:06;13.30;68.90
31677;DHT22;18385;51.572;6.578;2023-04-01T00:43:32;13.40;68.90
31677;DHT22;18385;51.572;6.578;2023-04-01T00:45:58;13.30;68.90
31677;DHT22;18385;51.572;6.578;2023-04-01T00:48:28;13.30;68.90
31677;DHT22;18385;51.572;6.578;2023-04-01T00:53:22;13.30;68.90
31677;DHT22;18385;51.572;6.578;2023-04-01T00:56:01;13.30;69.00
31677;DHT22;18385;51.572;6.578;2023-04-01T00:58:31;13.30;69.10
31677;DHT22;18385;51.572;6.578;2023-04-01T01:00:59;13.30;69.10
31677;DHT22;18385;51.572;6.578;2023-04-01T01:03:25;13.20;69.00
31677;DHT22;18385;51.572;6.578;2023-04-01T01:11:44;13.30;69.20
31677;DHT22;18385;51.572;6.578;2023-04-01T01:14:19;13.30;69.30
31677;DHT22;18385;51.572;6.578;2023-04-01T01:16:54;13.30;69.40
31677;DHT22;18385;51.572;6.578;2023-04-01T01:22:49;13.20;69.40
31677;DHT22;18385;51.572;6.578;2023-04-01T01:36:09;13.10;69.80
31677;DHT22;18385;51.572;6.578;2023-04-01T01:38:37;13.10;69.80
31677;DHT22;18385;51.572;6.578;2023-04-01T01:41:05;13.10;69.90
31677;DHT22;18385;51.572;6.578;2023-04-01T01:43:39;13.10;69.90
31677;DHT22;18385;51.572;6.578;2023-04-01T01:46:10;13.10;70.00
31677;DHT22;18385;51.572;6.578;2023-04-01T01:48:37;13.20;70.00
31677;DHT22;18385;51.572;6.578;2023-04-01T01:51:06;13.20;70.00
31677;DHT22;18385;51.572;6.578;2023-04-01T01:53:32;13.20;70.00
31677;DHT22;18385;51.572;6.578;2023-04-01T01:55:58;13.20;70.00
31677;DHT22;18385;51.572;6.578;2023-04-01T01:58:35;13.20;70.00
31677;DHT22;18385;51.572;6.578;2023-04-01T02:01:13;13.20;70.00
31677;DHT22;18385;51.572;6.578;2023-04-01T02:03:42;13.30;70.10
31677;DHT22;18385;51.572;6.578;2023-04-01T02:06:11;13.30;70.00
31677;DHT22;18385;51.572;6.578;2023-04-01T02:08:51;13.30;70.00
31677;DHT22;18385;51.572;6.578;2023-04-01T02:11:44;13.30;70.10
31677;DHT22;18385;51.572;6.578;2023-04-01T02:14:21;13.30;70.10
31677;DHT22;18385;51.572;6.578;2023-04-01T02:16:59;13.30;70.10
31677;DHT22;18385;51.572;6.578;2023-04-01T02:19:38;13.20;70.10
31677;DHT22;18385;51.572;6.578;2023-04-01T02:22:08;13.20;70.30
31677;DHT22;18385;51.572;6.578;2023-04-01T02:24:35;13.20;70.30
31677;DHT22;18385;51.572;6.578;2023-04-01T02:27:03;13.10;70.40
31677;DHT22;18385;51.572;6.578;2023-04-01T02:29:31;13.10;70.40
31677;DHT22;18385;51.572;6.578;2023-04-01T02:31:58;13.10;70.50
31677;DHT22;18385;51.572;6.578;2023-04-01T02:34:24;13.00;70.70
31677;DHT22;18385;51.572;6.578;2023-04-01T02:36:51;13.00;70.90
31677;DHT22;18385;51.572;6.578;2023-04-01T02:39:17;13.00;70.90
31677;DHT22;18385;51.572;6.578;2023-04-01T02:41:45;12.90;70.90
31677;DHT22;18385;51.572;6.578;2023-04-01T02:44:13;12.90;71.00
31677;DHT22;18385;51.572;6.578;2023-04-01T02:46:40;12.90;71.10
31677;DHT22;18385;51.572;6.578;2023-04-01T02:49:06;12.90;71.00
31677;DHT22;18385;51.572;6.578;2023-04-01T02:51:33;12.90;71.10
31677;DHT22;18385;51.572;6.578;2023-04-01T02:53:59;13.00;71.20
31677;DHT22;18385;51.572;6.578;2023-04-01T02:56:25;13.00;71.20
31677;DHT22;18385;51.572;6.578;2023-04-01T02:58:52;13.00;71.30
31677;DHT22;18385;51.572;6.578;2023-04-01T03:01:17;13.00;71.20
31677;DHT22;18385;51.572;6.578;2023-04-01T03:03:43;13.00;71.30
31677;DHT22;18385;51.572;6.578;2023-04-01T03:06:11;13.00;71.40
31677;DHT22;18385;51.572;6.578;2023-04-01T03:08:37;13.00;71.40
31677;DHT22;18385;51.572;6.578;2023-04-01T03:11:04;13.00;71.40
31677;DHT22;18385;51.572;6.578;2023-04-01T03:13:33;13.00;71.40
31677;DHT22;18385;51.572;6.578;2023-04-01T03:15:58;13.00;71.50
31677;DHT22;18385;51.572;6.578;2023-04-01T03:18:24;13.00;71.50
31677;DHT22;18385;51.572;6.578;2023-04-01T03:20:50;13.10;71.50
31677;DHT22;18385;51.572;6.578;2023-04-01T03:23:16;13.10;71.50
31677;DHT22;18385;51.572;6.578;2023-04-01T03:25:45;13.10;71.40
31677;DHT22;18385;51.572;6.578;2023-04-01T03:28:10;13.10;71.40
31677;DHT22;18385;51.572;6.578;2023-04-01T03:30:37;13.10;71.50
31677;DHT22;18385;51.572;6.578;2023-04-01T03:33:03;13.10;71.50
31677;DHT22;18385;51.572;6.578;2023-04-01T03:35:30;13.10;71.50
31677;DHT22;18385;51.572;6.578;2023-04-01T03:37:56;13.10;71.60
31677;DHT22;18385;51.572;6.578;2023-04-01T03:40:23;13.10;71.60
31677;DHT22;18385;51.572;6.578;2023-04-01T03:42:49;13.20;71.60
31677;DHT22;18385;51.572;6.578;2023-04-01T03:45:15;13.10;71.60
31677;DHT22;18385;51.572;6.578;2023-04-01T03:47:41;13.20;71.70
31677;DHT22;18385;51.572;6.578;2023-04-01T03:50:08;13.10;71.60
31677;DHT22;18385;51.572;6.578;2023-04-01T03:52:34;13.10;71.70
31677;DHT22;18385;51.572;6.578;2023-04-01T03:55:01;13.10;71.70
31677;DHT22;18385;51.572;6.578;2023-04-01T03:57:27;13.20;71.80
31677;DHT22;18385;51.572;6.578;2023-04-01T03:59:56;13.20;71.80
31677;DHT22;18385;51.572;6.578;2023-04-01T04:02:22;13.20;71.70
31677;DHT22;18385;51.572;6.578;2023-04-01T04:04:47;13.20;71.70
31677;DHT22;18385;51.572;6.578;2023-04-01T04:07:13;13.20;71.60
31677;DHT22;18385;51.572;6.578;2023-04-01T04:10:05;13.20;71.80
31677;DHT22;18385;51.572;6.578;2023-04-01T04:12:32;13.20;71.80
31677;DHT22;18385;51.572;6.578;2023-04-01T04:14:57;13.20;71.80
31677;DHT22;18385;51.572;6.578;2023-04-01T04:17:23;13.10;71.80
31677;DHT22;18385;51.572;6.578;2023-04-01T04:19:49;13.20;72.00
31677;DHT22;18385;51.572;6.578;2023-04-01T04:22:15;13.20;72.00
31677;DHT22;18385;51.572;6.578;2023-04-01T04:24:41;13.20;72.10
31677;DHT22;18385;51.572;6.578;2023-04-01T04:27:10;13.10;72.00
31677;DHT22;18385;51.572;6.578;2023-04-01T04:29:43;13.20;72.40
31677;DHT22;18385;51.572;6.578;2023-04-01T04:32:09;13.20;72.00
31677;DHT22;18385;51.572;6.578;2023-04-01T04:34:35;13.20;72.00
31677;DHT22;18385;51.572;6.578;2023-04-01T04:37:01;13.20;71.90
31677;DHT22;18385;51.572;6.578;2023-04-01T04:39:30;13.20;71.90
31677;DHT22;18385;51.572;6.578;2023-04-01T04:41:56;13.20;72.00
31677;DHT22;18385;51.572;6.578;2023-04-01T04:44:22;13.20;71.90
31677;DHT22;18385;51.572;6.578;2023-04-01T04:46:47;13.20;71.90
31677;DHT22;18385;51.572;6.578;2023-04-01T04:49:15;13.20;71.90
31677;DHT22;18385;51.572;6.578;2023-04-01T04:51:41;13.20;72.00
31677;DHT22;18385;51.572;6.578;2023-04-01T04:54:07;13.20;72.00
31677;DHT22;18385;51.572;6.578;2023-04-01T04:56:54;13.20;72.00
31677;DHT22;18385;51.572;6.578;2023-04-01T04:59:21;13.20;72.00
31677;DHT22;18385;51.572;6.578;2023-04-01T05:01:55;13.20;72.10
31677;DHT22;18385;51.572;6.578;2023-04-01T05:04:21;13.20;72.10
31677;DHT22;18385;51.572;6.578;2023-04-01T05:06:47;13.20;72.20
31677;DHT22;18385;51.572;6.578;2023-04-01T05:09:13;13.10;72.10
31677;DHT22;18385;51.572;6.578;2023-04-01T05:11:40;13.20;72.20
31677;DHT22;18385;51.572;6.578;2023-04-01T05:14:06;13.20;72.30
31677;DHT22;18385;51.572;6.578;2023-04-01T05:16:32;13.20;72.20
31677;DHT22;18385;51.572;6.578;2023-04-01T05:18:59;13.20;72.20
31677;DHT22;18385;51.572;6.578;2023-04-01T05:21:24;13.10;72.20
31677;DHT22;18385;51.572;6.578;2023-04-01T05:23:52;13.20;72.40
31677;DHT22;18385;51.572;6.578;2023-04-01T05:26:18;13.20;72.30
31677;DHT22;18385;51.572;6.578;2023-04-01T05:28:44;13.20;73.10
31677;DHT22;18385;51.572;6.578;2023-04-01T05:31:10;13.10;72.20
31677;DHT22;18385;51.572;6.578;2023-04-01T05:33:41;13.10;72.30
31677;DHT22;18385;51.572;6.578;2023-04-01T05:36:09;13.10;72.30
31677;DHT22;18385;51.572;6.578;2023-04-01T05:38:36;13.20;72.30
31677;DHT22;18385;51.572;6.578;2023-04-01T05:41:04;13.20;72.40
31677;DHT22;18385;51.572;6.578;2023-04-01T05:43:35;13.20;72.40
31677;DHT22;18385;51.572;6.578;2023-04-01T05:46:11;13.20;72.40
31677;DHT22;18385;51.572;6.578;2023-04-01T05:48:47;13.20;72.30
31677;DHT22;18385;51.572;6.578;2023-04-01T05:51:14;13.20;72.40
31677;DHT22;18385;51.572;6.578;2023-04-01T05:53:41;13.20;72.50
31677;DHT22;18385;51.572;6.578;2023-04-01T05:56:07;13.20;72.50
31677;DHT22;18385;51.572;6.578;2023-04-01T05:58:38;13.20;72.40
31677;DHT22;18385;51.572;6.578;2023-04-01T06:01:09;13.20;73.10
31677;DHT22;18385;51.572;6.578;2023-04-01T06:03:35;13.20;72.40
31677;DHT22;18385;51.572;6.578;2023-04-01T06:06:01;13.30;72.40
31677;DHT22;18385;51.572;6.578;2023-04-01T06:08:29;13.20;72.40
31677;DHT22;18385;51.572;6.578;2023-04-01T06:14:00;13.20;72.40
31677;DHT22;18385;51.572;6.578;2023-04-01T06:16:53;13.20;72.50
31677;DHT22;18385;51.572;6.578;2023-04-01T06:25:29;13.20;72.70
31677;DHT22;18385;51.572;6.578;2023-04-01T06:28:33;13.20;72.70
31677;DHT22;18385;51.572;6.578;2023-04-01T06:48:12;13.20;72.90
31677;DHT22;18385;51.572;6.578;2023-04-01T06:54:09;13.10;72.90
31677;DHT22;18385;51.572;6.578;2023-04-01T06:57:00;13.10;72.90
31677;DHT22;18385;51.572;6.578;2023-04-01T06:59:31;13.10;72.90
31677;DHT22;18385;51.572;6.578;2023-04-01T07:02:38;13.10;72.90
31677;DHT22;18385;51.572;6.578;2023-04-01T07:05:05;13.20;73.10
31677;DHT22;18385;51.572;6.578;2023-04-01T07:07:35;13.20;72.90
31677;DHT22;18385;51.572;6.578;2023-04-01T07:10:17;13.20;72.80
31677;DHT22;18385;51.572;6.578;2023-04-01T07:13:05;13.30;72.90
31677;DHT22;18385;51.572;6.578;2023-04-01T07:16:13;13.30;72.90
31677;DHT22;18385;51.572;6.578;2023-04-01T07:18:54;13.30;73.00
31677;DHT22;18385;51.572;6.578;2023-04-01T07:21:44;13.30;72.80
31677;DHT22;18385;51.572;6.578;2023-04-01T07:24:41;13.40;72.70
31677;DHT22;18385;51.572;6.578;2023-04-01T07:27:11;13.30;72.60
31677;DHT22;18385;51.572;6.578;2023-04-01T07:29:38;13.40;72.80
31677;DHT22;18385;51.572;6.578;2023-04-01T07:32:12;13.40;73.50
31677;DHT22;18385;51.572;6.578;2023-04-01T07:37:57;13.40;72.80
31677;DHT22;18385;51.572;6.578;2023-04-01T07:45:38;13.40;72.80
31677;DHT22;18385;51.572;6.578;2023-04-01T07:48:30;13.30;73.60
31677;DHT22;18385;51.572;6.578;2023-04-01T07:51:11;13.30;72.90
31677;DHT22;18385;51.572;6.578;2023-04-01T07:59:01;13.20;73.10
31677;DHT22;18385;51.572;6.578;2023-04-01T08:13:45;13.40;74.00
31677;DHT22;18385;51.572;6.578;2023-04-01T08:16:18;13.60;73.30
31677;DHT22;18385;51.572;6.578;2023-04-01T08:21:24;13.60;73.00
31677;DHT22;18385;51.572;6.578;2023-04-01T08:23:58;13.70;73.00
31677;DHT22;18385;51.572;6.578;2023-04-01T08:26:42;13.70;72.90
31677;DHT22;18385;51.572;6.578;2023-04-01T08:29:20;13.80;73.20
31677;DHT22;18385;51.572;6.578;2023-04-01T08:34:37;13.90;72.90
31677;DHT22;18385;51.572;6.578;2023-04-01T08:37:43;13.90;72.70
31677;DHT22;18385;51.572;6.578;2023-04-01T08:42:55;13.90;72.90
31677;DHT22;18385;51.572;6.578;2023-04-01T08:57:01;14.10;72.40
31677;DHT22;18385;51.572;6.578;2023-04-01T08:59:54;14.10;72.60
31677;DHT22;18385;51.572;6.578;2023-04-01T09:08:22;13.90;72.80
31677;DHT22;18385;51.572;6.578;2023-04-01T09:16:27;13.80;73.40
31677;DHT22;18385;51.572;6.578;2023-04-01T09:19:20;13.90;73.50
31677;DHT22;18385;51.572;6.578;2023-04-01T09:22:30;14.00;73.30
31677;DHT22;18385;51.572;6.578;2023-04-01T09:28:19;14.00;73.40
31677;DHT22;18385;51.572;6.578;2023-04-01T09:31:13;14.10;73.40
31677;DHT22;18385;51.572;6.578;2023-04-01T09:34:13;14.00;73.30
31677;DHT22;18385;51.572;6.578;2023-04-01T09:37:01;14.10;73.70
31677;DHT22;18385;51.572;6.578;2023-04-01T09:42:42;14.10;73.40
31677;DHT22;18385;51.572;6.578;2023-04-01T09:51:18;14.00;73.30
31677;DHT22;18385;51.572;6.578;2023-04-01T09:59:31;13.80;73.90
31677;DHT22;18385;51.572;6.578;2023-04-01T10:20:18;14.00;74.10
31677;DHT22;18385;51.572;6.578;2023-04-01T10:36:56;13.90;74.00
31677;DHT22;18385;51.572;6.578;2023-04-01T11:00:57;13.90;74.40
31677;DHT22;18385;51.572;6.578;2023-04-01T11:24:55;14.10;74.70
31677;DHT22;18385;51.572;6.578;2023-04-01T11:33:28;14.20;74.60
31677;DHT22;18385;51.572;6.578;2023-04-01T11:36:19;14.30;74.60
31677;DHT22;18385;51.572;6.578;2023-04-01T11:48:38;14.40;74.70
31677;DHT22;18385;51.572;6.578;2023-04-01T11:56:59;14.60;74.60
31677;DHT22;18385;51.572;6.578;2023-04-01T12:10:55;14.80;73.60
31677;DHT22;18385;51.572;6.578;2023-04-01T12:13:26;14.90;73.50
31677;DHT22;18385;51.572;6.578;2023-04-01T12:23:02;14.90;73.10
31677;DHT22;18385;51.572;6.578;2023-04-01T12:25:56;14.80;72.90
31677;DHT22;18385;51.572;6.578;2023-04-01T12:28:16;14.70;73.30
31677;DHT22;18385;51.572;6.578;2023-04-01T12:36:32;14.50;73.80
31677;DHT22;18385;51.572;6.578;2023-04-01T12:42:07;14.20;74.30
31677;DHT22;18385;51.572;6.578;2023-04-01T12:47:51;14.20;74.70
31677;DHT22;18385;51.572;6.578;2023-04-01T12:54:02;14.00;74.60
31677;DHT22;18385;51.572;6.578;2023-04-01T13:04:56;13.90;75.10
31677;DHT22;18385;51.572;6.578;2023-04-01T13:15:54;14.00;75.00
31677;DHT22;18385;51.572;6.578;2023-04-01T13:24:32;14.00;75.30
31677;DHT22;18385;51.572;6.578;2023-04-01T13:27:33;14.20;75.30
31677;DHT22;18385;51.572;6.578;2023-04-01T13:30:27;14.20;75.00
31677;DHT22;18385;51.572;6.578;2023-04-01T13:35:49;14.30;74.90
31677;DHT22;18385;51.572;6.578;2023-04-01T13:38:47;14.30;75.00
31677;DHT22;18385;51.572;6.578;2023-04-01T13:44:22;14.30;75.00
31677;DHT22;18385;51.572;6.578;2023-04-01T13:50:26;14.30;75.00
31677;DHT22;18385;51.572;6.578;2023-04-01T13:53:11;14.30;74.70
31677;DHT22;18385;51.572;6.578;2023-04-01T14:01:13;14.00;75.30
31677;DHT22;18385;51.572;6.578;2023-04-01T14:06:35;14.00;75.40
31677;DHT22;18385;51.572;6.578;2023-04-01T14:20:26;14.00;75.50
31677;DHT22;18385;51.572;6.578;2023-04-01T14:23:28;14.10;75.60
31677;DHT22;18385;51.572;6.578;2023-04-01T14:37:01;14.10;75.60
31677;DHT22;18385;51.572;6.578;2023-04-01T14:45:17;14.00;75.50
31677;DHT22;18385;51.572;6.578;2023-04-01T14:50:51;14.10;75.60
31677;DHT22;18385;51.572;6.578;2023-04-01T14:53:37;14.10;75.40
31677;DHT22;18385;51.572;6.578;2023-04-01T14:56:04;14.10;75.50
31677;DHT22;18385;51.572;6.578;2023-04-01T14:58:46;14.10;75.60
31677;DHT22;18385;51.572;6.578;2023-04-01T15:04:27;14.00;75.60
31677;DHT22;18385;51.572;6.578;2023-04-01T15:09:41;13.90;75.70
31677;DHT22;18385;51.572;6.578;2023-04-01T15:14:54;14.00;75.80
31677;DHT22;18385;51.572;6.578;2023-04-01T15:28:56;14.00;75.70
31677;DHT22;18385;51.572;6.578;2023-04-01T15:31:34;14.00;75.60
31677;DHT22;18385;51.572;6.578;2023-04-01T15:34:19;14.00;75.80
31677;DHT22;18385;51.572;6.578;2023-04-01T15:37:15;14.10;75.80
31677;DHT22;18385;51.572;6.578;2023-04-01T15:39:57;14.20;75.40
31677;DHT22;18385;51.572;6.578;2023-04-01T15:48:02;14.30;74.90
31677;DHT22;18385;51.572;6.578;2023-04-01T15:50:43;14.30;74.80
31677;DHT22;18385;51.572;6.578;2023-04-01T15:58:55;14.00;75.20
31677;DHT22;18385;51.572;6.578;2023-04-01T16:01:37;13.90;75.30
31677;DHT22;18385;51.572;6.578;2023-04-01T16:15:38;13.60;75.90
31677;DHT22;18385;51.572;6.578;2023-04-01T16:18:27;13.60;76.10
31677;DHT22;18385;51.572;6.578;2023-04-01T16:23:37;13.60;76.10
31677;DHT22;18385;51.572;6.578;2023-04-01T16:26:15;13.70;76.10
31677;DHT22;18385;51.572;6.578;2023-04-01T16:31:35;13.70;76.10
31677;DHT22;18385;51.572;6.578;2023-04-01T16:36:41;13.70;76.10
31677;DHT22;18385;51.572;6.578;2023-04-01T16:47:32;13.70;75.90
31677;DHT22;18385;51.572;6.578;2023-04-01T16:52:36;13.70;76.20
31677;DHT22;18385;51.572;6.578;2023-04-01T16:55:16;13.70;76.00
31677;DHT22;18385;51.572;6.578;2023-04-01T16:57:52;13.70;76.10
31677;DHT22;18385;51.572;6.578;2023-04-01T17:00:38;13.80;76.10
31677;DHT22;18385;51.572;6.578;2023-04-01T17:03:32;13.70;76.00
31677;DHT22;18385;51.572;6.578;2023-04-01T17:32:51;13.70;76.20
31677;DHT22;18385;51.572;6.578;2023-04-01T17:53:18;13.60;76.50
31677;DHT22;18385;51.572;6.578;2023-04-01T18:01:17;13.60;76.20
31677;DHT22;18385;51.572;6.578;2023-04-01T18:03:51;13.60;76.20
31677;DHT22;18385;51.572;6.578;2023-04-01T18:09:00;13.60;76.50
31677;DHT22;18385;51.572;6.578;2023-04-01T18:17:24;13.70;76.50
31677;DHT22;18385;51.572;6.578;2023-04-01T18:20:17;13.70;76.30
31677;DHT22;18385;51.572;6.578;2023-04-01T18:23:51;13.80;76.40
31677;DHT22;18385;51.572;6.578;2023-04-01T18:25:52;13.90;76.30
31677;DHT22;18385;51.572;6.578;2023-04-01T18:31:33;13.80;76.30
31677;DHT22;18385;51.572;6.578;2023-04-01T18:34:39;13.70;76.10
31677;DHT22;18385;51.572;6.578;2023-04-01T18:40:42;13.60;76.40
31677;DHT22;18385;51.572;6.578;2023-04-01T18:43:12;13.50;76.50
31677;DHT22;18385;51.572;6.578;2023-04-01T18:45:51;13.50;76.60
31677;DHT22;18385;51.572;6.578;2023-04-01T18:51:17;13.40;76.60
31677;DHT22;18385;51.572;6.578;2023-04-01T18:54:02;13.40;76.40
31677;DHT22;18385;51.572;6.578;2023-04-01T18:56:34;13.40;76.50
31677;DHT22;18385;51.572;6.578;2023-04-01T19:13:40;13.40;76.10
31677;DHT22;18385;51.572;6.578;2023-04-01T19:40:20;13.10;76.20
31677;DHT22;18385;51.572;6.578;2023-04-01T19:50:46;13.20;76.00
31677;DHT22;18385;51.572;6.578;2023-04-01T19:58:43;13.20;75.90
31677;DHT22;18385;51.572;6.578;2023-04-01T20:01:30;13.10;75.80
31677;DHT22;18385;51.572;6.578;2023-04-01T20:04:08;13.10;75.90
31677;DHT22;18385;51.572;6.578;2023-04-01T20:06:54;13.10;75.90
31677;DHT22;18385;51.572;6.578;2023-04-01T20:15:46;13.00;75.80
31677;DHT22;18385;51.572;6.578;2023-04-01T20:18:19;13.00;75.90
31677;DHT22;18385;51.572;6.578;2023-04-01T20:21:02;12.90;75.80
31677;DHT22;18385;51.572;6.578;2023-04-01T20:23:55;12.90;75.80
31677;DHT22;18385;51.572;6.578;2023-04-01T20:26:30;12.80;75.70
31677;DHT22;18385;51.572;6.578;2023-04-01T20:29:27;12.80;75.80
31677;DHT22;18385;51.572;6.578;2023-04-01T20:32:31;12.70;75.70
31677;DHT22;18385;51.572;6.578;2023-04-01T20:40:34;12.60;75.70
31677;DHT22;18385;51.572;6.578;2023-04-01T20:43:32;12.60;75.80
31677;DHT22;18385;51.572;6.578;2023-04-01T20:46:07;12.60;75.70
31677;DHT22;18385;51.572;6.578;2023-04-01T20:49:13;12.50;75.70
31677;DHT22;18385;51.572;6.578;2023-04-01T20:51:54;12.50;75.70
31677;DHT22;18385;51.572;6.578;2023-04-01T20:54:39;12.60;75.80
31677;DHT22;18385;51.572;6.578;2023-04-01T20:57:15;12.60;75.70
31677;DHT22;18385;51.572;6.578;2023-04-01T21:08:20;12.60;75.30
31677;DHT22;18385;51.572;6.578;2023-04-01T21:11:18;12.50;75.20
31677;DHT22;18385;51.572;6.578;2023-04-01T21:16:49;12.30;75.20
31677;DHT22;18385;51.572;6.578;2023-04-01T21:27:05;12.30;75.30
31677;DHT22;18385;51.572;6.578;2023-04-01T21:30:12;12.30;75.30
31677;DHT22;18385;51.572;6.578;2023-04-01T21:35:48;12.20;75.20
31677;DHT22;18385;51.572;6.578;2023-04-01T21:43:35;12.10;75.30
31677;DHT22;18385;51.572;6.578;2023-04-01T21:52:16;12.00;75.10
31677;DHT22;18385;51.572;6.578;2023-04-01T22:06:19;11.80;75.10
31677;DHT22;18385;51.572;6.578;2023-04-01T22:08:56;11.80;75.00
31677;DHT22;18385;51.572;6.578;2023-04-01T22:11:44;11.80;75.30
31677;DHT22;18385;51.572;6.578;2023-04-01T22:14:16;11.80;75.10
31677;DHT22;18385;51.572;6.578;2023-04-01T22:16:56;11.70;75.20
31677;DHT22;18385;51.572;6.578;2023-04-01T22:25:21;11.70;75.10
31677;DHT22;18385;51.572;6.578;2023-04-01T22:28:04;11.60;75.10
31677;DHT22;18385;51.572;6.578;2023-04-01T22:30:41;11.60;75.10
31677;DHT22;18385;51.572;6.578;2023-04-01T22:33:32;11.60;75.10
31677;DHT22;18385;51.572;6.578;2023-04-01T22:38:57;11.70;75.00
31677;DHT22;18385;51.572;6.578;2023-04-01T22:50:15;11.50;74.90
31677;DHT22;18385;51.572;6.578;2023-04-01T22:52:46;11.50;74.90
31677;DHT22;18385;51.572;6.578;2023-04-01T22:55:27;11.50;74.90
31677;DHT22;18385;51.572;6.578;2023-04-01T22:58:08;11.50;75.00
31677;DHT22;18385;51.572;6.578;2023-04-01T23:01:19;11.50;74.90
31677;DHT22;18385;51.572;6.578;2023-04-01T23:03:49;11.40;74.90
31677;DHT22;18385;51.572;6.578;2023-04-01T23:06:20;11.40;74.90
31677;DHT22;18385;51.572;6.578;2023-04-01T23:09:36;11.30;74.70
31677;DHT22;18385;51.572;6.578;2023-04-01T23:12:04;11.40;74.80
31677;DHT22;18385;51.572;6.578;2023-04-01T23:17:32;11.30;74.70
31677;DHT22;18385;51.572;6.578;2023-04-01T23:20:05;11.30;74.60
31677;DHT22;18385;51.572;6.578;2023-04-01T23:25:44;11.20;74.60
31677;DHT22;18385;51.572;6.578;2023-04-01T23:30:49;11.20;74.60
31677;DHT22;18385;51.572;6.578;2023-04-01T23:36:21;11.20;74.60
31677;DHT22;18385;51.572;6.578;2023-04-01T23:38:42;11.20;74.40
31677;DHT22;18385;51.572;6.578;2023-04-01T23:41:27;11.20;74.40
31677;DHT22;18385;51.572;6.578;2023-04-01T23:44:10;11.20;74.30
31677;DHT22;18385;51.572;6.578;2023-04-01T23:46:39;11.20;74.30
31677;DHT22;18385;51.572;6.578;2023-04-01T23:49:30;11.20;74.30
31677;DHT22;18385;51.572;6.578;2023-04-01T23:51:59;11.20;74.10
31677;DHT22;18385;51.572;6.578;2023-04-01T23:56:56;11.10;74.10
